sensor_id;sensor_type;location;lat;lon;timestamp;P1;durP1;ratioP1;P2;durP2;ratioP2
25687;SDS011;17407;51.120;3.702;2024-02-21T00:01:46;9.88;;;3.97;;
25687;SDS011;17407;51.120;3.702;2024-02-21T00:04:11;9.40;;;4.68;;
25687;SDS011;17407;51.120;3.702;2024-02-21T00:06:37;10.13;;;4.03;;
25687;SDS011;17407;51.120;3.702;2024-02-21T00:09:02;11.65;;;4.03;;
25687;SDS011;17407;51.120;3.702;2024-02-21T00:11:28;12.63;;;4.38;;
25687;SDS011;17407;51.120;3.702;2024-02-21T00:13:54;8.77;;;4.40;;
25687;SDS011;17407;51.120;3.702;2024-02-21T00:16:19;8.73;;;4.03;;
25687;SDS011;17407;51.120;3.702;2024-02-21T00:18:45;11.10;;;4.72;;
25687;SDS011;17407;51.120;3.702;2024-02-21T00:21:11;8.40;;;3.97;;
25687;SDS011;17407;51.120;3.702;2024-02-21T00:23:43;8.75;;;4.22;;
25687;SDS011;17407;51.120;3.702;2024-02-21T00:26:11;8.48;;;5.25;;
25687;SDS011;17407;51.120;3.702;2024-02-21T00:28:37;12.65;;;4.50;;
25687;SDS011;17407;51.120;3.702;2024-02-21T00:31:03;7.97;;;4.70;;
25687;SDS011;17407;51.120;3.702;2024-02-21T00:33:28;10.43;;;4.57;;
25687;SDS011;17407;51.120;3.702;2024-02-21T00:35:54;6.68;;;4.53;;
25687;SDS011;17407;51.120;3.702;2024-02-21T00:38:20;8.38;;;4.35;;
25687;SDS011;17407;51.120;3.702;2024-02-21T00:40:45;7.93;;;4.55;;
25687;SDS011;17407;51.120;3.702;2024-02-21T00:43:11;8.55;;;4.07;;
25687;SDS011;17407;51.120;3.702;2024-02-21T00:45:37;9.98;;;4.65;;
25687;SDS011;17407;51.120;3.702;2024-02-21T00:48:02;9.75;;;4.22;;
25687;SDS011;17407;51.120;3.702;2024-02-21T00:50:29;7.45;;;3.72;;
25687;SDS011;17407;51.120;3.702;2024-02-21T00:52:55;8.07;;;3.78;;
25687;SDS011;17407;51.120;3.702;2024-02-21T00:55:20;8.15;;;4.00;;
25687;SDS011;17407;51.120;3.702;2024-02-21T00:57:46;8.52;;;3.97;;
25687;SDS011;17407;51.120;3.702;2024-02-21T01:00:12;7.15;;;4.15;;
25687;SDS011;17407;51.120;3.702;2024-02-21T01:02:38;6.40;;;4.20;;
25687;SDS011;17407;51.120;3.702;2024-02-21T01:05:03;9.52;;;4.40;;
25687;SDS011;17407;51.120;3.702;2024-02-21T01:07:29;9.85;;;3.90;;
25687;SDS011;17407;51.120;3.702;2024-02-21T01:09:55;9.25;;;4.00;;
25687;SDS011;17407;51.120;3.702;2024-02-21T01:12:20;5.60;;;3.72;;
25687;SDS011;17407;51.120;3.702;2024-02-21T01:14:46;8.23;;;3.95;;
25687;SDS011;17407;51.120;3.702;2024-02-21T01:17:12;9.18;;;4.60;;
25687;SDS011;17407;51.120;3.702;2024-02-21T01:19:38;9.25;;;4.85;;
25687;SDS011;17407;51.120;3.702;2024-02-21T01:22:03;9.07;;;5.28;;
25687;SDS011;17407;51.120;3.702;2024-02-21T01:24:29;11.63;;;5.32;;
25687;SDS011;17407;51.120;3.702;2024-02-21T01:26:55;15.07;;;6.18;;
25687;SDS011;17407;51.120;3.702;2024-02-21T01:29:20;10.13;;;5.60;;
25687;SDS011;17407;51.120;3.702;2024-02-21T01:31:46;9.00;;;5.95;;
25687;SDS011;17407;51.120;3.702;2024-02-21T01:34:12;17.95;;;6.75;;
25687;SDS011;17407;51.120;3.702;2024-02-21T01:36:38;15.90;;;7.18;;
25687;SDS011;17407;51.120;3.702;2024-02-21T01:39:03;23.27;;;8.25;;
25687;SDS011;17407;51.120;3.702;2024-02-21T01:41:30;14.70;;;7.55;;
25687;SDS011;17407;51.120;3.702;2024-02-21T01:43:56;16.40;;;7.20;;
25687;SDS011;17407;51.120;3.702;2024-02-21T01:46:22;15.40;;;8.00;;
25687;SDS011;17407;51.120;3.702;2024-02-21T01:48:48;14.25;;;7.43;;
25687;SDS011;17407;51.120;3.702;2024-02-21T01:51:14;19.52;;;8.45;;
25687;SDS011;17407;51.120;3.702;2024-02-21T01:53:43;17.88;;;9.20;;
25687;SDS011;17407;51.120;3.702;2024-02-21T01:56:10;14.80;;;7.40;;
25687;SDS011;17407;51.120;3.702;2024-02-21T01:58:39;22.48;;;9.27;;
25687;SDS011;17407;51.120;3.702;2024-02-21T02:01:07;15.88;;;7.45;;
25687;SDS011;17407;51.120;3.702;2024-02-21T02:03:33;17.77;;;8.77;;
25687;SDS011;17407;51.120;3.702;2024-02-21T02:05:59;19.30;;;9.15;;
25687;SDS011;17407;51.120;3.702;2024-02-21T02:08:25;20.13;;;8.65;;
25687;SDS011;17407;51.120;3.702;2024-02-21T02:10:51;15.57;;;8.23;;
25687;SDS011;17407;51.120;3.702;2024-02-21T02:13:17;21.85;;;9.02;;
25687;SDS011;17407;51.120;3.702;2024-02-21T02:15:47;17.55;;;8.50;;
25687;SDS011;17407;51.120;3.702;2024-02-21T02:18:14;25.83;;;8.88;;
25687;SDS011;17407;51.120;3.702;2024-02-21T02:20:40;16.17;;;7.95;;
25687;SDS011;17407;51.120;3.702;2024-02-21T02:23:10;20.27;;;8.60;;
25687;SDS011;17407;51.120;3.702;2024-02-21T02:25:45;16.38;;;8.57;;
25687;SDS011;17407;51.120;3.702;2024-02-21T02:28:14;19.98;;;8.43;;
25687;SDS011;17407;51.120;3.702;2024-02-21T02:30:40;20.45;;;8.38;;
25687;SDS011;17407;51.120;3.702;2024-02-21T02:33:06;19.55;;;8.75;;
25687;SDS011;17407;51.120;3.702;2024-02-21T02:35:32;24.70;;;8.45;;
25687;SDS011;17407;51.120;3.702;2024-02-21T02:38:00;28.45;;;9.68;;
25687;SDS011;17407;51.120;3.702;2024-02-21T02:40:26;22.73;;;8.65;;
25687;SDS011;17407;51.120;3.702;2024-02-21T02:42:51;20.35;;;7.93;;
25687;SDS011;17407;51.120;3.702;2024-02-21T02:45:20;17.90;;;9.02;;
25687;SDS011;17407;51.120;3.702;2024-02-21T02:47:47;18.60;;;8.05;;
25687;SDS011;17407;51.120;3.702;2024-02-21T02:50:13;24.08;;;8.25;;
25687;SDS011;17407;51.120;3.702;2024-02-21T02:52:39;17.77;;;8.15;;
25687;SDS011;17407;51.120;3.702;2024-02-21T02:55:05;20.13;;;7.70;;
25687;SDS011;17407;51.120;3.702;2024-02-21T02:57:32;23.45;;;8.50;;
25687;SDS011;17407;51.120;3.702;2024-02-21T02:59:58;22.90;;;8.40;;
25687;SDS011;17407;51.120;3.702;2024-02-21T03:02:23;22.92;;;8.27;;
25687;SDS011;17407;51.120;3.702;2024-02-21T03:04:49;17.73;;;8.15;;
25687;SDS011;17407;51.120;3.702;2024-02-21T03:07:15;17.02;;;8.23;;
25687;SDS011;17407;51.120;3.702;2024-02-21T03:09:41;21.70;;;8.40;;
25687;SDS011;17407;51.120;3.702;2024-02-21T03:12:09;21.63;;;8.52;;
25687;SDS011;17407;51.120;3.702;2024-02-21T03:14:35;20.10;;;8.40;;
25687;SDS011;17407;51.120;3.702;2024-02-21T03:17:01;17.80;;;8.35;;
25687;SDS011;17407;51.120;3.702;2024-02-21T03:19:28;16.52;;;8.50;;
25687;SDS011;17407;51.120;3.702;2024-02-21T03:21:54;15.52;;;8.55;;
25687;SDS011;17407;51.120;3.702;2024-02-21T03:24:20;17.38;;;8.48;;
25687;SDS011;17407;51.120;3.702;2024-02-21T03:26:46;18.55;;;8.52;;
25687;SDS011;17407;51.120;3.702;2024-02-21T03:29:14;25.60;;;8.02;;
25687;SDS011;17407;51.120;3.702;2024-02-21T03:31:41;19.55;;;8.38;;
25687;SDS011;17407;51.120;3.702;2024-02-21T03:34:07;20.35;;;8.57;;
25687;SDS011;17407;51.120;3.702;2024-02-21T03:36:33;19.60;;;8.98;;
25687;SDS011;17407;51.120;3.702;2024-02-21T03:38:59;22.17;;;8.60;;
25687;SDS011;17407;51.120;3.702;2024-02-21T03:41:24;22.33;;;8.30;;
25687;SDS011;17407;51.120;3.702;2024-02-21T03:43:50;25.00;;;8.57;;
25687;SDS011;17407;51.120;3.702;2024-02-21T03:46:16;25.02;;;8.13;;
25687;SDS011;17407;51.120;3.702;2024-02-21T03:48:41;25.13;;;9.25;;
25687;SDS011;17407;51.120;3.702;2024-02-21T03:51:07;24.27;;;9.50;;
25687;SDS011;17407;51.120;3.702;2024-02-21T03:53:32;21.27;;;8.27;;
25687;SDS011;17407;51.120;3.702;2024-02-21T03:56:01;27.10;;;9.55;;
25687;SDS011;17407;51.120;3.702;2024-02-21T03:58:28;19.33;;;8.35;;
25687;SDS011;17407;51.120;3.702;2024-02-21T04:00:53;25.13;;;8.27;;
25687;SDS011;17407;51.120;3.702;2024-02-21T04:03:19;17.55;;;8.32;;
25687;SDS011;17407;51.120;3.702;2024-02-21T04:05:45;27.88;;;9.07;;
25687;SDS011;17407;51.120;3.702;2024-02-21T04:08:11;17.55;;;7.97;;
25687;SDS011;17407;51.120;3.702;2024-02-21T04:10:36;22.00;;;9.73;;
25687;SDS011;17407;51.120;3.702;2024-02-21T04:13:02;18.45;;;8.75;;
25687;SDS011;17407;51.120;3.702;2024-02-21T04:15:29;16.98;;;7.88;;
25687;SDS011;17407;51.120;3.702;2024-02-21T04:17:54;26.63;;;9.20;;
25687;SDS011;17407;51.120;3.702;2024-02-21T04:20:20;18.08;;;8.55;;
25687;SDS011;17407;51.120;3.702;2024-02-21T04:22:46;25.38;;;10.05;;
25687;SDS011;17407;51.120;3.702;2024-02-21T04:25:11;22.35;;;8.57;;
25687;SDS011;17407;51.120;3.702;2024-02-21T04:27:38;20.00;;;8.52;;
25687;SDS011;17407;51.120;3.702;2024-02-21T04:30:04;23.42;;;9.77;;
25687;SDS011;17407;51.120;3.702;2024-02-21T04:32:31;28.52;;;11.05;;
25687;SDS011;17407;51.120;3.702;2024-02-21T04:34:57;26.33;;;9.80;;
25687;SDS011;17407;51.120;3.702;2024-02-21T04:37:23;19.00;;;8.65;;
25687;SDS011;17407;51.120;3.702;2024-02-21T04:39:49;19.13;;;9.27;;
25687;SDS011;17407;51.120;3.702;2024-02-21T04:42:15;27.85;;;9.57;;
25687;SDS011;17407;51.120;3.702;2024-02-21T04:44:41;27.25;;;10.75;;
25687;SDS011;17407;51.120;3.702;2024-02-21T04:47:06;22.80;;;9.25;;
25687;SDS011;17407;51.120;3.702;2024-02-21T04:49:32;33.22;;;10.43;;
25687;SDS011;17407;51.120;3.702;2024-02-21T04:51:58;22.35;;;9.88;;
25687;SDS011;17407;51.120;3.702;2024-02-21T04:54:24;17.88;;;9.95;;
25687;SDS011;17407;51.120;3.702;2024-02-21T04:56:50;26.13;;;10.48;;
25687;SDS011;17407;51.120;3.702;2024-02-21T04:59:16;23.95;;;10.57;;
25687;SDS011;17407;51.120;3.702;2024-02-21T05:01:42;23.52;;;10.25;;
25687;SDS011;17407;51.120;3.702;2024-02-21T05:04:07;18.85;;;9.77;;
25687;SDS011;17407;51.120;3.702;2024-02-21T05:06:38;23.42;;;11.70;;
25687;SDS011;17407;51.120;3.702;2024-02-21T05:09:07;18.65;;;9.80;;
25687;SDS011;17407;51.120;3.702;2024-02-21T05:11:33;19.35;;;10.15;;
25687;SDS011;17407;51.120;3.702;2024-02-21T05:14:00;23.45;;;10.27;;
25687;SDS011;17407;51.120;3.702;2024-02-21T05:16:26;26.73;;;11.00;;
25687;SDS011;17407;51.120;3.702;2024-02-21T05:18:51;26.05;;;11.02;;
25687;SDS011;17407;51.120;3.702;2024-02-21T05:21:17;22.73;;;11.63;;
25687;SDS011;17407;51.120;3.702;2024-02-21T05:23:43;20.58;;;10.35;;
25687;SDS011;17407;51.120;3.702;2024-02-21T05:26:08;20.63;;;11.02;;
25687;SDS011;17407;51.120;3.702;2024-02-21T05:28:34;20.15;;;11.23;;
25687;SDS011;17407;51.120;3.702;2024-02-21T05:31:00;25.15;;;11.30;;
25687;SDS011;17407;51.120;3.702;2024-02-21T05:33:25;25.33;;;11.48;;
25687;SDS011;17407;51.120;3.702;2024-02-21T05:35:51;23.00;;;10.45;;
25687;SDS011;17407;51.120;3.702;2024-02-21T05:38:17;21.63;;;11.80;;
25687;SDS011;17407;51.120;3.702;2024-02-21T05:40:46;20.48;;;10.30;;
25687;SDS011;17407;51.120;3.702;2024-02-21T05:43:13;21.75;;;9.98;;
25687;SDS011;17407;51.120;3.702;2024-02-21T05:45:38;23.35;;;10.40;;
25687;SDS011;17407;51.120;3.702;2024-02-21T05:48:04;21.27;;;9.60;;
25687;SDS011;17407;51.120;3.702;2024-02-21T05:50:30;17.42;;;9.95;;
25687;SDS011;17407;51.120;3.702;2024-02-21T05:52:57;22.52;;;10.07;;
25687;SDS011;17407;51.120;3.702;2024-02-21T05:55:23;18.42;;;10.50;;
25687;SDS011;17407;51.120;3.702;2024-02-21T05:57:49;18.98;;;10.32;;
25687;SDS011;17407;51.120;3.702;2024-02-21T06:00:14;21.70;;;10.88;;
25687;SDS011;17407;51.120;3.702;2024-02-21T06:02:41;21.90;;;11.27;;
25687;SDS011;17407;51.120;3.702;2024-02-21T06:05:07;24.50;;;10.50;;
25687;SDS011;17407;51.120;3.702;2024-02-21T06:07:33;24.77;;;11.57;;
25687;SDS011;17407;51.120;3.702;2024-02-21T06:09:59;22.65;;;11.77;;
25687;SDS011;17407;51.120;3.702;2024-02-21T06:12:26;26.15;;;11.55;;
25687;SDS011;17407;51.120;3.702;2024-02-21T06:14:51;23.95;;;10.88;;
25687;SDS011;17407;51.120;3.702;2024-02-21T06:17:17;18.65;;;10.65;;
25687;SDS011;17407;51.120;3.702;2024-02-21T06:19:43;19.23;;;10.65;;
25687;SDS011;17407;51.120;3.702;2024-02-21T06:22:09;23.17;;;11.50;;
25687;SDS011;17407;51.120;3.702;2024-02-21T06:24:35;18.33;;;11.48;;
25687;SDS011;17407;51.120;3.702;2024-02-21T06:27:02;21.15;;;11.70;;
25687;SDS011;17407;51.120;3.702;2024-02-21T06:29:31;15.75;;;10.65;;
25687;SDS011;17407;51.120;3.702;2024-02-21T06:31:57;20.08;;;10.98;;
25687;SDS011;17407;51.120;3.702;2024-02-21T06:34:23;17.90;;;11.82;;
25687;SDS011;17407;51.120;3.702;2024-02-21T06:36:49;22.63;;;11.15;;
25687;SDS011;17407;51.120;3.702;2024-02-21T06:39:15;20.67;;;11.25;;
25687;SDS011;17407;51.120;3.702;2024-02-21T06:41:41;22.70;;;11.57;;
25687;SDS011;17407;51.120;3.702;2024-02-21T06:44:06;18.52;;;11.43;;
25687;SDS011;17407;51.120;3.702;2024-02-21T06:46:32;22.77;;;11.93;;
25687;SDS011;17407;51.120;3.702;2024-02-21T06:49:01;19.58;;;11.32;;
25687;SDS011;17407;51.120;3.702;2024-02-21T06:51:28;20.92;;;11.32;;
25687;SDS011;17407;51.120;3.702;2024-02-21T06:53:54;20.70;;;11.70;;
25687;SDS011;17407;51.120;3.702;2024-02-21T06:56:20;16.73;;;11.88;;
25687;SDS011;17407;51.120;3.702;2024-02-21T06:58:51;26.35;;;13.77;;
25687;SDS011;17407;51.120;3.702;2024-02-21T07:01:17;20.98;;;13.30;;
25687;SDS011;17407;51.120;3.702;2024-02-21T07:03:43;18.10;;;12.20;;
25687;SDS011;17407;51.120;3.702;2024-02-21T07:06:08;23.98;;;12.77;;
25687;SDS011;17407;51.120;3.702;2024-02-21T07:08:34;21.45;;;12.45;;
25687;SDS011;17407;51.120;3.702;2024-02-21T07:11:00;26.50;;;14.18;;
25687;SDS011;17407;51.120;3.702;2024-02-21T07:13:25;21.75;;;13.38;;
25687;SDS011;17407;51.120;3.702;2024-02-21T07:15:51;22.20;;;13.77;;
25687;SDS011;17407;51.120;3.702;2024-02-21T07:18:17;19.13;;;12.70;;
25687;SDS011;17407;51.120;3.702;2024-02-21T07:20:42;20.92;;;12.52;;
25687;SDS011;17407;51.120;3.702;2024-02-21T07:23:08;22.38;;;12.98;;
25687;SDS011;17407;51.120;3.702;2024-02-21T07:25:34;19.98;;;12.77;;
25687;SDS011;17407;51.120;3.702;2024-02-21T07:27:59;22.48;;;12.93;;
25687;SDS011;17407;51.120;3.702;2024-02-21T07:30:25;23.98;;;12.65;;
25687;SDS011;17407;51.120;3.702;2024-02-21T07:32:51;23.73;;;13.52;;
25687;SDS011;17407;51.120;3.702;2024-02-21T07:35:19;19.33;;;12.55;;
25687;SDS011;17407;51.120;3.702;2024-02-21T07:37:45;23.73;;;12.45;;
25687;SDS011;17407;51.120;3.702;2024-02-21T07:40:14;23.33;;;11.90;;
25687;SDS011;17407;51.120;3.702;2024-02-21T07:42:42;25.45;;;12.98;;
25687;SDS011;17407;51.120;3.702;2024-02-21T07:45:08;22.58;;;11.80;;
25687;SDS011;17407;51.120;3.702;2024-02-21T07:47:35;18.92;;;11.98;;
25687;SDS011;17407;51.120;3.702;2024-02-21T07:50:01;18.67;;;12.38;;
25687;SDS011;17407;51.120;3.702;2024-02-21T07:52:27;23.77;;;12.45;;
25687;SDS011;17407;51.120;3.702;2024-02-21T07:54:53;28.35;;;12.43;;
25687;SDS011;17407;51.120;3.702;2024-02-21T07:57:19;19.60;;;11.77;;
25687;SDS011;17407;51.120;3.702;2024-02-21T07:59:44;22.30;;;11.57;;
25687;SDS011;17407;51.120;3.702;2024-02-21T08:02:12;18.92;;;12.25;;
25687;SDS011;17407;51.120;3.702;2024-02-21T08:04:40;20.95;;;13.32;;
25687;SDS011;17407;51.120;3.702;2024-02-21T08:07:06;25.17;;;12.68;;
25687;SDS011;17407;51.120;3.702;2024-02-21T08:09:32;25.75;;;13.63;;
25687;SDS011;17407;51.120;3.702;2024-02-21T08:11:58;22.45;;;12.45;;
25687;SDS011;17407;51.120;3.702;2024-02-21T08:14:23;26.23;;;12.55;;
25687;SDS011;17407;51.120;3.702;2024-02-21T08:16:50;20.63;;;12.27;;
25687;SDS011;17407;51.120;3.702;2024-02-21T08:19:18;26.88;;;12.55;;
25687;SDS011;17407;51.120;3.702;2024-02-21T08:21:44;24.17;;;12.60;;
25687;SDS011;17407;51.120;3.702;2024-02-21T08:24:13;19.98;;;12.02;;
25687;SDS011;17407;51.120;3.702;2024-02-21T08:26:45;18.80;;;13.02;;
25687;SDS011;17407;51.120;3.702;2024-02-21T08:29:11;19.45;;;11.85;;
25687;SDS011;17407;51.120;3.702;2024-02-21T08:31:37;19.33;;;11.18;;
25687;SDS011;17407;51.120;3.702;2024-02-21T08:34:03;20.48;;;11.50;;
25687;SDS011;17407;51.120;3.702;2024-02-21T08:36:30;22.80;;;12.30;;
25687;SDS011;17407;51.120;3.702;2024-02-21T08:38:57;21.42;;;11.00;;
25687;SDS011;17407;51.120;3.702;2024-02-21T08:41:23;21.27;;;11.82;;
25687;SDS011;17407;51.120;3.702;2024-02-21T08:43:52;15.82;;;11.05;;
25687;SDS011;17407;51.120;3.702;2024-02-21T08:46:21;20.48;;;11.43;;
25687;SDS011;17407;51.120;3.702;2024-02-21T08:48:49;18.77;;;11.13;;
25687;SDS011;17407;51.120;3.702;2024-02-21T08:51:16;22.23;;;11.68;;
25687;SDS011;17407;51.120;3.702;2024-02-21T08:53:42;28.35;;;12.95;;
25687;SDS011;17407;51.120;3.702;2024-02-21T08:56:08;22.05;;;13.10;;
25687;SDS011;17407;51.120;3.702;2024-02-21T08:58:34;23.75;;;12.00;;
25687;SDS011;17407;51.120;3.702;2024-02-21T09:01:01;18.73;;;11.60;;
25687;SDS011;17407;51.120;3.702;2024-02-21T09:03:28;20.00;;;11.82;;
25687;SDS011;17407;51.120;3.702;2024-02-21T09:05:56;22.23;;;12.65;;
25687;SDS011;17407;51.120;3.702;2024-02-21T09:08:21;21.77;;;12.43;;
25687;SDS011;17407;51.120;3.702;2024-02-21T09:10:49;22.23;;;12.77;;
25687;SDS011;17407;51.120;3.702;2024-02-21T09:13:15;18.92;;;12.52;;
25687;SDS011;17407;51.120;3.702;2024-02-21T09:15:40;22.05;;;13.57;;
25687;SDS011;17407;51.120;3.702;2024-02-21T09:18:07;25.75;;;12.52;;
25687;SDS011;17407;51.120;3.702;2024-02-21T09:20:32;27.45;;;12.80;;
25687;SDS011;17407;51.120;3.702;2024-02-21T09:22:58;24.80;;;12.48;;
25687;SDS011;17407;51.120;3.702;2024-02-21T09:25:24;21.10;;;11.98;;
25687;SDS011;17407;51.120;3.702;2024-02-21T09:27:50;23.35;;;12.55;;
25687;SDS011;17407;51.120;3.702;2024-02-21T09:30:17;19.60;;;12.20;;
25687;SDS011;17407;51.120;3.702;2024-02-21T09:32:44;19.45;;;11.40;;
25687;SDS011;17407;51.120;3.702;2024-02-21T09:35:09;28.98;;;12.27;;
25687;SDS011;17407;51.120;3.702;2024-02-21T09:37:35;23.67;;;11.90;;
25687;SDS011;17407;51.120;3.702;2024-02-21T09:40:01;26.17;;;12.75;;
25687;SDS011;17407;51.120;3.702;2024-02-21T09:42:34;20.30;;;11.18;;
25687;SDS011;17407;51.120;3.702;2024-02-21T09:45:14;23.50;;;10.75;;
25687;SDS011;17407;51.120;3.702;2024-02-21T09:47:50;18.98;;;10.45;;
25687;SDS011;17407;51.120;3.702;2024-02-21T09:50:36;18.20;;;11.82;;
25687;SDS011;17407;51.120;3.702;2024-02-21T09:53:05;21.42;;;12.13;;
25687;SDS011;17407;51.120;3.702;2024-02-21T09:55:33;20.92;;;11.15;;
25687;SDS011;17407;51.120;3.702;2024-02-21T09:58:00;21.23;;;10.57;;
25687;SDS011;17407;51.120;3.702;2024-02-21T10:00:27;23.10;;;11.75;;
25687;SDS011;17407;51.120;3.702;2024-02-21T10:02:53;18.55;;;11.20;;
25687;SDS011;17407;51.120;3.702;2024-02-21T10:05:19;20.90;;;10.82;;
25687;SDS011;17407;51.120;3.702;2024-02-21T10:07:45;18.25;;;9.73;;
25687;SDS011;17407;51.120;3.702;2024-02-21T10:10:11;16.95;;;9.80;;
25687;SDS011;17407;51.120;3.702;2024-02-21T10:12:36;15.45;;;9.55;;
25687;SDS011;17407;51.120;3.702;2024-02-21T10:15:12;20.02;;;10.43;;
25687;SDS011;17407;51.120;3.702;2024-02-21T10:17:38;15.50;;;9.93;;
25687;SDS011;17407;51.120;3.702;2024-02-21T10:20:08;21.25;;;9.63;;
25687;SDS011;17407;51.120;3.702;2024-02-21T10:22:35;18.65;;;9.82;;
25687;SDS011;17407;51.120;3.702;2024-02-21T10:25:11;16.52;;;9.35;;
25687;SDS011;17407;51.120;3.702;2024-02-21T10:27:38;15.65;;;8.70;;
25687;SDS011;17407;51.120;3.702;2024-02-21T10:30:08;17.75;;;9.35;;
25687;SDS011;17407;51.120;3.702;2024-02-21T10:32:48;14.18;;;8.80;;
25687;SDS011;17407;51.120;3.702;2024-02-21T10:37:56;17.02;;;8.88;;
25687;SDS011;17407;51.120;3.702;2024-02-21T10:40:25;17.08;;;8.50;;
25687;SDS011;17407;51.120;3.702;2024-02-21T10:43:01;14.05;;;8.00;;
25687;SDS011;17407;51.120;3.702;2024-02-21T10:45:30;13.05;;;7.95;;
25687;SDS011;17407;51.120;3.702;2024-02-21T10:48:01;13.70;;;8.65;;
25687;SDS011;17407;51.120;3.702;2024-02-21T10:50:27;11.73;;;8.15;;
25687;SDS011;17407;51.120;3.702;2024-02-21T10:53:05;14.43;;;8.20;;
25687;SDS011;17407;51.120;3.702;2024-02-21T10:55:41;13.13;;;8.43;;
25687;SDS011;17407;51.120;3.702;2024-02-21T10:58:15;18.23;;;8.90;;
25687;SDS011;17407;51.120;3.702;2024-02-21T11:00:42;15.52;;;10.32;;
25687;SDS011;17407;51.120;3.702;2024-02-21T11:03:07;14.90;;;10.27;;
25687;SDS011;17407;51.120;3.702;2024-02-21T11:05:34;20.17;;;11.05;;
25687;SDS011;17407;51.120;3.702;2024-02-21T11:08:00;16.13;;;11.05;;
25687;SDS011;17407;51.120;3.702;2024-02-21T11:10:26;20.55;;;11.95;;
25687;SDS011;17407;51.120;3.702;2024-02-21T11:13:06;17.25;;;11.30;;
25687;SDS011;17407;51.120;3.702;2024-02-21T11:15:34;17.85;;;11.68;;
25687;SDS011;17407;51.120;3.702;2024-02-21T11:17:59;14.80;;;9.88;;
25687;SDS011;17407;51.120;3.702;2024-02-21T11:20:35;16.60;;;10.27;;
25687;SDS011;17407;51.120;3.702;2024-02-21T11:23:01;16.20;;;8.95;;
25687;SDS011;17407;51.120;3.702;2024-02-21T11:25:28;18.20;;;10.25;;
25687;SDS011;17407;51.120;3.702;2024-02-21T11:28:02;16.17;;;8.85;;
25687;SDS011;17407;51.120;3.702;2024-02-21T11:30:35;12.90;;;8.27;;
25687;SDS011;17407;51.120;3.702;2024-02-21T11:33:03;15.73;;;8.32;;
25687;SDS011;17407;51.120;3.702;2024-02-21T11:35:33;17.00;;;7.90;;
25687;SDS011;17407;51.120;3.702;2024-02-21T11:38:11;11.88;;;6.95;;
25687;SDS011;17407;51.120;3.702;2024-02-21T11:40:41;12.57;;;7.82;;
25687;SDS011;17407;51.120;3.702;2024-02-21T11:43:09;12.85;;;8.23;;
25687;SDS011;17407;51.120;3.702;2024-02-21T11:45:35;14.02;;;8.25;;
25687;SDS011;17407;51.120;3.702;2024-02-21T11:48:01;10.27;;;7.35;;
25687;SDS011;17407;51.120;3.702;2024-02-21T11:50:29;13.23;;;7.47;;
25687;SDS011;17407;51.120;3.702;2024-02-21T11:52:55;12.45;;;7.13;;
25687;SDS011;17407;51.120;3.702;2024-02-21T11:55:22;11.90;;;7.32;;
25687;SDS011;17407;51.120;3.702;2024-02-21T11:57:48;18.75;;;7.80;;
25687;SDS011;17407;51.120;3.702;2024-02-21T12:00:14;9.77;;;7.55;;
25687;SDS011;17407;51.120;3.702;2024-02-21T12:02:41;11.80;;;7.63;;
25687;SDS011;17407;51.120;3.702;2024-02-21T12:05:07;16.40;;;8.25;;
25687;SDS011;17407;51.120;3.702;2024-02-21T12:07:33;12.27;;;7.40;;
25687;SDS011;17407;51.120;3.702;2024-02-21T12:10:01;14.23;;;7.88;;
25687;SDS011;17407;51.120;3.702;2024-02-21T12:12:28;15.90;;;8.63;;
25687;SDS011;17407;51.120;3.702;2024-02-21T12:14:55;10.20;;;7.43;;
25687;SDS011;17407;51.120;3.702;2024-02-21T12:17:23;12.00;;;7.90;;
25687;SDS011;17407;51.120;3.702;2024-02-21T12:19:49;12.82;;;7.82;;
25687;SDS011;17407;51.120;3.702;2024-02-21T12:22:18;15.85;;;8.07;;
25687;SDS011;17407;51.120;3.702;2024-02-21T12:24:44;14.57;;;7.57;;
25687;SDS011;17407;51.120;3.702;2024-02-21T12:27:12;12.73;;;7.72;;
25687;SDS011;17407;51.120;3.702;2024-02-21T12:29:39;13.55;;;7.22;;
25687;SDS011;17407;51.120;3.702;2024-02-21T12:32:04;12.20;;;7.53;;
25687;SDS011;17407;51.120;3.702;2024-02-21T12:34:30;10.35;;;7.85;;
25687;SDS011;17407;51.120;3.702;2024-02-21T12:36:59;13.60;;;8.27;;
25687;SDS011;17407;51.120;3.702;2024-02-21T12:39:24;11.60;;;8.80;;
25687;SDS011;17407;51.120;3.702;2024-02-21T12:41:53;11.00;;;7.47;;
25687;SDS011;17407;51.120;3.702;2024-02-21T12:44:21;11.13;;;6.72;;
25687;SDS011;17407;51.120;3.702;2024-02-21T12:46:46;11.73;;;6.85;;
25687;SDS011;17407;51.120;3.702;2024-02-21T12:49:16;11.02;;;7.18;;
25687;SDS011;17407;51.120;3.702;2024-02-21T12:51:43;8.93;;;7.03;;
25687;SDS011;17407;51.120;3.702;2024-02-21T12:54:08;11.57;;;7.97;;
25687;SDS011;17407;51.120;3.702;2024-02-21T12:56:36;11.65;;;6.95;;
25687;SDS011;17407;51.120;3.702;2024-02-21T12:59:02;11.50;;;6.55;;
25687;SDS011;17407;51.120;3.702;2024-02-21T13:01:28;11.70;;;8.38;;
25687;SDS011;17407;51.120;3.702;2024-02-21T13:03:54;12.13;;;6.88;;
25687;SDS011;17407;51.120;3.702;2024-02-21T13:06:20;11.02;;;7.40;;
25687;SDS011;17407;51.120;3.702;2024-02-21T13:08:46;9.60;;;7.25;;
25687;SDS011;17407;51.120;3.702;2024-02-21T13:11:12;10.70;;;6.65;;
25687;SDS011;17407;51.120;3.702;2024-02-21T13:13:40;12.05;;;7.03;;
25687;SDS011;17407;51.120;3.702;2024-02-21T13:16:06;10.23;;;6.65;;
25687;SDS011;17407;51.120;3.702;2024-02-21T13:18:32;11.20;;;6.55;;
25687;SDS011;17407;51.120;3.702;2024-02-21T13:20:57;11.38;;;6.10;;
25687;SDS011;17407;51.120;3.702;2024-02-21T13:23:23;12.45;;;6.82;;
25687;SDS011;17407;51.120;3.702;2024-02-21T13:25:49;11.38;;;7.68;;
25687;SDS011;17407;51.120;3.702;2024-02-21T13:28:15;17.10;;;7.25;;
25687;SDS011;17407;51.120;3.702;2024-02-21T13:30:41;13.00;;;8.52;;
25687;SDS011;17407;51.120;3.702;2024-02-21T13:33:08;12.63;;;7.72;;
25687;SDS011;17407;51.120;3.702;2024-02-21T13:35:35;8.82;;;7.20;;
25687;SDS011;17407;51.120;3.702;2024-02-21T13:38:01;13.48;;;8.30;;
25687;SDS011;17407;51.120;3.702;2024-02-21T13:40:28;16.58;;;8.68;;
25687;SDS011;17407;51.120;3.702;2024-02-21T13:42:53;13.05;;;8.48;;
25687;SDS011;17407;51.120;3.702;2024-02-21T13:45:19;11.93;;;8.23;;
25687;SDS011;17407;51.120;3.702;2024-02-21T13:47:45;12.70;;;8.27;;
25687;SDS011;17407;51.120;3.702;2024-02-21T13:50:11;12.60;;;8.57;;
25687;SDS011;17407;51.120;3.702;2024-02-21T13:52:39;10.63;;;7.95;;
25687;SDS011;17407;51.120;3.702;2024-02-21T13:55:08;13.30;;;7.63;;
25687;SDS011;17407;51.120;3.702;2024-02-21T13:57:37;13.70;;;8.18;;
25687;SDS011;17407;51.120;3.702;2024-02-21T14:00:03;11.27;;;8.20;;
25687;SDS011;17407;51.120;3.702;2024-02-21T14:02:30;12.18;;;7.05;;
25687;SDS011;17407;51.120;3.702;2024-02-21T14:04:56;13.27;;;7.63;;
25687;SDS011;17407;51.120;3.702;2024-02-21T14:07:21;10.90;;;6.95;;
25687;SDS011;17407;51.120;3.702;2024-02-21T14:09:47;14.35;;;7.10;;
25687;SDS011;17407;51.120;3.702;2024-02-21T14:12:13;11.10;;;7.28;;
25687;SDS011;17407;51.120;3.702;2024-02-21T14:14:39;9.90;;;7.85;;
25687;SDS011;17407;51.120;3.702;2024-02-21T14:17:04;14.45;;;8.30;;
25687;SDS011;17407;51.120;3.702;2024-02-21T14:19:30;12.70;;;7.80;;
25687;SDS011;17407;51.120;3.702;2024-02-21T14:21:56;12.30;;;8.52;;
25687;SDS011;17407;51.120;3.702;2024-02-21T14:24:22;11.30;;;7.35;;
25687;SDS011;17407;51.120;3.702;2024-02-21T14:26:48;12.30;;;8.80;;
25687;SDS011;17407;51.120;3.702;2024-02-21T14:29:14;10.88;;;6.75;;
25687;SDS011;17407;51.120;3.702;2024-02-21T14:31:40;9.30;;;7.20;;